Observations for LEEDS AND BRADFORD, United Kingdom (EGNM)

EGNM 242150Z 27009KT CAVOK 08/05 Q1038  
EGNM 242120Z 26010KT CAVOK 08/05 Q1037  
EGNM 242050Z 27009KT CAVOK 08/05 Q1038  
EGNM 242020Z 28012KT CAVOK 09/05 Q1038  
EGNM 241950Z 28011KT CAVOK 09/05 Q1037  
EGNM 241920Z 26009KT CAVOK 09/05 Q1037  
EGNM 241850Z 27010KT CAVOK 09/05 Q1037  
EGNM 241820Z 28013KT CAVOK 09/05 Q1037  
EGNM 241750Z 27009KT CAVOK 10/05 Q1037  
EGNM 241720Z 27012KT 9999 FEW028 11/05 Q1037
EGNM 241650Z 28012KT 9999 FEW025 12/05 Q1037
EGNM 241620Z 28011KT 9999 FEW024 12/06 Q1037
EGNM 241550Z 28012KT 9999 FEW020 SCT030 11/05 Q1037 
EGNM 241520Z 28013KT 9999 FEW016 SCT035 11/06 Q1037 
EGNM 241450Z 27013KT 240V310 9999 SCT032 12/05 Q1037
EGNM 241420Z 26010KT 230V300 9999 SCT029 SCT035 12/05 Q1037 
EGNM 241350Z 27011KT 240V300 9999 SCT029 SCT035 13/05 Q1037 
EGNM 241320Z 28012KT 250V320 9999 SCT029 SCT035 12/06 Q1037 
EGNM 241250Z 30010KT 9999 SCT029 SCT035 12/05 Q1037 
EGNM 241220Z 29011KT 250V330 9999 SCT032 12/05 Q1037
EGNM 241150Z 28012KT 9999 SCT033 12/05 Q1037
EGNM 241120Z 28013KT 240V320 9999 SCT032 12/04 Q1037
EGNM 241050Z 27013KT 9999 FEW020 12/04 Q1037
EGNM 241020Z 27011KT 9999 FEW020 12/05 Q1037
EGNM 240950Z 26009KT CAVOK 10/03 Q1037  
EGNM 240920Z 28007KT 260V320 CAVOK 11/04 Q1037  
EGNM 240850Z 27009KT CAVOK 09/04 Q1036  
EGNM 240820Z 27010KT CAVOK 08/03 Q1036  
EGNM 240750Z 26010KT CAVOK 07/03 Q1036  
EGNM 240720Z 25009KT CAVOK 05/02 Q1035  
EGNM 240650Z 26009KT CAVOK 05/02 Q1035  
EGNM 240620Z 26009KT CAVOK 04/02 Q1035  
EGNM 240550Z 26008KT CAVOK 05/02 Q1034  
EGNM 240520Z 26008KT CAVOK 05/02 Q1034  
EGNM 240450Z 30010KT CAVOK 04/02 Q1034  
EGNM 240420Z 24007KT CAVOK 04/02 Q1034  
EGNM 240350Z 27006KT 240V310 CAVOK 06/02 Q1034  
EGNM 240320Z 31009KT CAVOK 06/02 Q1033  
EGNM 240250Z 30011KT CAVOK 06/03 Q1033  
EGNM 240150Z 30012KT CAVOK 07/03 Q1033  
EGNM 240120Z 28011KT CAVOK 07/03 Q1032  
EGNM 240050Z 29010KT CAVOK 07/03 Q1032  
EGNM 240020Z 29011KT CAVOK 07/03 Q1032  
EGNM 232350Z 29011KT CAVOK 07/03 Q1031  
EGNM 232320Z 30010KT CAVOK 07/03 Q1030  
EGNM 232250Z 26004KT 210V310 CAVOK 07/03 Q1030  
EGNM 232220Z 30008KT CAVOK 07/03 Q1030  
EGNM 232150Z 29010KT CAVOK 08/03 Q1029  
EGNM 232120Z 30009KT CAVOK 08/03 Q1029